sensor_id;sensor_type;location;lat;lon;timestamp;temperature;humidity
10468;DHT22;5281;48.878;9.394;2023-05-10T00:00:05;16.70;99.90
10468;DHT22;5281;48.878;9.394;2023-05-10T00:02:32;16.70;99.90
10468;DHT22;5281;48.878;9.394;2023-05-10T00:04:59;16.70;99.90
10468;DHT22;5281;48.878;9.394;2023-05-10T00:07:26;16.80;99.90
10468;DHT22;5281;48.878;9.394;2023-05-10T00:09:53;16.80;99.90
10468;DHT22;5281;48.878;9.394;2023-05-10T00:12:21;16.80;99.90
10468;DHT22;5281;48.878;9.394;2023-05-10T00:14:47;16.80;99.90
10468;DHT22;5281;48.878;9.394;2023-05-10T00:17:14;16.80;99.90
10468;DHT22;5281;48.878;9.394;2023-05-10T00:19:41;16.80;99.90
10468;DHT22;5281;48.878;9.394;2023-05-10T00:22:08;16.80;99.90
10468;DHT22;5281;48.878;9.394;2023-05-10T00:24:35;16.80;99.90
10468;DHT22;5281;48.878;9.394;2023-05-10T00:27:02;16.70;99.90
10468;DHT22;5281;48.878;9.394;2023-05-10T00:29:31;16.70;99.90
10468;DHT22;5281;48.878;9.394;2023-05-10T00:31:59;16.70;99.90
10468;DHT22;5281;48.878;9.394;2023-05-10T00:34:25;16.80;99.90
10468;DHT22;5281;48.878;9.394;2023-05-10T00:36:52;16.80;99.90
10468;DHT22;5281;48.878;9.394;2023-05-10T00:39:19;16.60;99.90
10468;DHT22;5281;48.878;9.394;2023-05-10T00:41:46;16.50;99.90
10468;DHT22;5281;48.878;9.394;2023-05-10T00:44:12;16.40;99.90
10468;DHT22;5281;48.878;9.394;2023-05-10T00:46:41;16.30;99.90
10468;DHT22;5281;48.878;9.394;2023-05-10T00:49:08;16.30;99.90
10468;DHT22;5281;48.878;9.394;2023-05-10T00:51:34;16.30;99.90
10468;DHT22;5281;48.878;9.394;2023-05-10T00:54:02;16.30;99.90
10468;DHT22;5281;48.878;9.394;2023-05-10T00:56:29;16.30;99.90
10468;DHT22;5281;48.878;9.394;2023-05-10T00:58:56;16.30;99.90
10468;DHT22;5281;48.878;9.394;2023-05-10T01:01:23;16.30;99.90
10468;DHT22;5281;48.878;9.394;2023-05-10T01:03:51;16.30;99.90
10468;DHT22;5281;48.878;9.394;2023-05-10T01:06:17;16.20;99.90
10468;DHT22;5281;48.878;9.394;2023-05-10T01:08:44;16.30;99.90
10468;DHT22;5281;48.878;9.394;2023-05-10T01:11:11;16.20;99.90
10468;DHT22;5281;48.878;9.394;2023-05-10T01:13:39;16.30;99.90
10468;DHT22;5281;48.878;9.394;2023-05-10T01:16:07;16.30;99.90
10468;DHT22;5281;48.878;9.394;2023-05-10T01:18:38;16.30;99.90
10468;DHT22;5281;48.878;9.394;2023-05-10T01:21:16;16.30;99.90
10468;DHT22;5281;48.878;9.394;2023-05-10T01:24:16;16.20;99.90
10468;DHT22;5281;48.878;9.394;2023-05-10T01:27:07;16.20;99.90
10468;DHT22;5281;48.878;9.394;2023-05-10T01:30:08;16.20;99.90
10468;DHT22;5281;48.878;9.394;2023-05-10T01:32:43;16.20;99.90
10468;DHT22;5281;48.878;9.394;2023-05-10T01:35:17;16.30;99.90
10468;DHT22;5281;48.878;9.394;2023-05-10T01:37:50;16.20;99.90
10468;DHT22;5281;48.878;9.394;2023-05-10T01:40:23;16.10;99.90
10468;DHT22;5281;48.878;9.394;2023-05-10T01:42:55;16.10;99.90
10468;DHT22;5281;48.878;9.394;2023-05-10T01:45:30;16.10;99.90
10468;DHT22;5281;48.878;9.394;2023-05-10T01:48:05;16.00;99.90
10468;DHT22;5281;48.878;9.394;2023-05-10T01:50:35;15.90;99.90
10468;DHT22;5281;48.878;9.394;2023-05-10T01:53:03;15.90;99.90
10468;DHT22;5281;48.878;9.394;2023-05-10T01:55:33;15.90;99.90
10468;DHT22;5281;48.878;9.394;2023-05-10T01:58:04;15.90;99.90
10468;DHT22;5281;48.878;9.394;2023-05-10T02:00:33;15.90;99.90
10468;DHT22;5281;48.878;9.394;2023-05-10T02:03:06;15.90;99.90
10468;DHT22;5281;48.878;9.394;2023-05-10T02:05:34;15.80;99.90
10468;DHT22;5281;48.878;9.394;2023-05-10T02:08:05;16.00;99.90
10468;DHT22;5281;48.878;9.394;2023-05-10T02:10:32;15.90;99.90
10468;DHT22;5281;48.878;9.394;2023-05-10T02:13:02;15.80;99.90
10468;DHT22;5281;48.878;9.394;2023-05-10T02:15:30;15.80;99.90
10468;DHT22;5281;48.878;9.394;2023-05-10T02:17:58;15.80;99.90
10468;DHT22;5281;48.878;9.394;2023-05-10T02:20:29;15.90;99.90
10468;DHT22;5281;48.878;9.394;2023-05-10T02:22:58;15.90;99.90
10468;DHT22;5281;48.878;9.394;2023-05-10T02:25:25;15.90;99.90
10468;DHT22;5281;48.878;9.394;2023-05-10T02:27:55;15.90;99.90
10468;DHT22;5281;48.878;9.394;2023-05-10T02:30:22;15.90;99.90
10468;DHT22;5281;48.878;9.394;2023-05-10T02:32:50;15.90;99.90
10468;DHT22;5281;48.878;9.394;2023-05-10T02:35:19;15.80;99.90
10468;DHT22;5281;48.878;9.394;2023-05-10T02:37:47;15.70;99.90
10468;DHT22;5281;48.878;9.394;2023-05-10T02:40:15;15.70;99.90
10468;DHT22;5281;48.878;9.394;2023-05-10T02:42:44;15.60;99.90
10468;DHT22;5281;48.878;9.394;2023-05-10T02:45:17;15.50;99.90
10468;DHT22;5281;48.878;9.394;2023-05-10T02:47:43;15.50;99.90
10468;DHT22;5281;48.878;9.394;2023-05-10T02:50:10;15.50;99.90
10468;DHT22;5281;48.878;9.394;2023-05-10T02:52:40;15.50;99.90
10468;DHT22;5281;48.878;9.394;2023-05-10T02:55:11;15.50;99.90
10468;DHT22;5281;48.878;9.394;2023-05-10T02:57:42;15.50;99.90
10468;DHT22;5281;48.878;9.394;2023-05-10T03:00:10;15.40;99.90
10468;DHT22;5281;48.878;9.394;2023-05-10T03:02:37;15.40;99.90
10468;DHT22;5281;48.878;9.394;2023-05-10T03:05:04;15.50;99.90
10468;DHT22;5281;48.878;9.394;2023-05-10T03:07:31;15.50;99.90
10468;DHT22;5281;48.878;9.394;2023-05-10T03:09:59;15.50;99.90
10468;DHT22;5281;48.878;9.394;2023-05-10T03:12:35;15.60;99.90
10468;DHT22;5281;48.878;9.394;2023-05-10T03:15:11;15.60;99.90
10468;DHT22;5281;48.878;9.394;2023-05-10T03:17:45;15.60;99.90
10468;DHT22;5281;48.878;9.394;2023-05-10T03:20:18;15.60;99.90
10468;DHT22;5281;48.878;9.394;2023-05-10T03:22:49;15.50;99.90
10468;DHT22;5281;48.878;9.394;2023-05-10T03:25:19;15.50;99.90
10468;DHT22;5281;48.878;9.394;2023-05-10T03:27:49;15.50;99.90
10468;DHT22;5281;48.878;9.394;2023-05-10T03:30:16;15.60;99.90
10468;DHT22;5281;48.878;9.394;2023-05-10T03:32:43;15.60;99.90
10468;DHT22;5281;48.878;9.394;2023-05-10T03:35:10;15.60;99.90
10468;DHT22;5281;48.878;9.394;2023-05-10T03:37:38;15.70;99.90
10468;DHT22;5281;48.878;9.394;2023-05-10T03:40:06;15.60;99.90
10468;DHT22;5281;48.878;9.394;2023-05-10T03:42:33;15.60;99.90
10468;DHT22;5281;48.878;9.394;2023-05-10T03:45:01;15.70;99.90
10468;DHT22;5281;48.878;9.394;2023-05-10T03:47:28;15.70;99.90
10468;DHT22;5281;48.878;9.394;2023-05-10T03:49:55;15.80;99.90
10468;DHT22;5281;48.878;9.394;2023-05-10T03:52:22;15.80;99.90
10468;DHT22;5281;48.878;9.394;2023-05-10T03:54:49;15.80;99.90
10468;DHT22;5281;48.878;9.394;2023-05-10T03:57:16;15.80;99.90
10468;DHT22;5281;48.878;9.394;2023-05-10T03:59:42;15.80;99.90
10468;DHT22;5281;48.878;9.394;2023-05-10T04:02:10;15.80;99.90
10468;DHT22;5281;48.878;9.394;2023-05-10T04:04:37;15.80;99.90
10468;DHT22;5281;48.878;9.394;2023-05-10T04:07:04;15.90;99.90
10468;DHT22;5281;48.878;9.394;2023-05-10T04:09:30;15.90;99.90
10468;DHT22;5281;48.878;9.394;2023-05-10T04:11:58;15.90;99.90
10468;DHT22;5281;48.878;9.394;2023-05-10T04:14:25;15.90;99.90
10468;DHT22;5281;48.878;9.394;2023-05-10T04:16:52;15.90;99.90
10468;DHT22;5281;48.878;9.394;2023-05-10T04:19:20;15.90;99.90
10468;DHT22;5281;48.878;9.394;2023-05-10T04:21:46;15.90;99.90
10468;DHT22;5281;48.878;9.394;2023-05-10T04:24:13;16.00;99.90
10468;DHT22;5281;48.878;9.394;2023-05-10T04:26:40;16.00;99.90
10468;DHT22;5281;48.878;9.394;2023-05-10T04:29:07;16.10;99.90
10468;DHT22;5281;48.878;9.394;2023-05-10T04:31:33;16.10;99.90
10468;DHT22;5281;48.878;9.394;2023-05-10T04:34:01;16.10;99.90
10468;DHT22;5281;48.878;9.394;2023-05-10T04:36:29;16.10;99.90
10468;DHT22;5281;48.878;9.394;2023-05-10T04:38:57;16.20;99.90
10468;DHT22;5281;48.878;9.394;2023-05-10T04:41:24;16.20;99.90
10468;DHT22;5281;48.878;9.394;2023-05-10T04:43:51;16.30;99.90
10468;DHT22;5281;48.878;9.394;2023-05-10T04:46:18;16.30;99.90
10468;DHT22;5281;48.878;9.394;2023-05-10T04:48:44;16.40;99.90
10468;DHT22;5281;48.878;9.394;2023-05-10T04:51:11;16.40;99.90
10468;DHT22;5281;48.878;9.394;2023-05-10T04:53:39;16.50;99.90
10468;DHT22;5281;48.878;9.394;2023-05-10T04:56:06;16.50;99.90
10468;DHT22;5281;48.878;9.394;2023-05-10T04:58:33;16.50;99.90
10468;DHT22;5281;48.878;9.394;2023-05-10T05:01:05;16.50;99.90
10468;DHT22;5281;48.878;9.394;2023-05-10T05:03:32;16.40;99.90
10468;DHT22;5281;48.878;9.394;2023-05-10T05:05:59;16.40;99.90
10468;DHT22;5281;48.878;9.394;2023-05-10T05:08:26;16.50;99.90
10468;DHT22;5281;48.878;9.394;2023-05-10T05:10:54;16.50;99.90
10468;DHT22;5281;48.878;9.394;2023-05-10T05:13:21;16.60;99.90
10468;DHT22;5281;48.878;9.394;2023-05-10T05:15:47;16.60;99.90
10468;DHT22;5281;48.878;9.394;2023-05-10T05:18:14;16.70;99.90
10468;DHT22;5281;48.878;9.394;2023-05-10T05:20:41;16.90;99.90
10468;DHT22;5281;48.878;9.394;2023-05-10T05:23:07;17.00;99.90
10468;DHT22;5281;48.878;9.394;2023-05-10T05:25:34;17.10;99.90
10468;DHT22;5281;48.878;9.394;2023-05-10T05:28:03;17.30;99.90
10468;DHT22;5281;48.878;9.394;2023-05-10T05:30:30;17.30;99.90
10468;DHT22;5281;48.878;9.394;2023-05-10T05:32:56;17.50;99.90
10468;DHT22;5281;48.878;9.394;2023-05-10T05:35:23;17.60;99.90
10468;DHT22;5281;48.878;9.394;2023-05-10T05:37:50;17.80;99.90
10468;DHT22;5281;48.878;9.394;2023-05-10T05:40:17;17.90;99.90
10468;DHT22;5281;48.878;9.394;2023-05-10T05:42:44;17.90;99.90
10468;DHT22;5281;48.878;9.394;2023-05-10T05:45:12;18.00;99.90
10468;DHT22;5281;48.878;9.394;2023-05-10T05:47:39;17.90;99.90
10468;DHT22;5281;48.878;9.394;2023-05-10T05:50:07;17.90;99.90
10468;DHT22;5281;48.878;9.394;2023-05-10T05:52:33;17.80;99.90
10468;DHT22;5281;48.878;9.394;2023-05-10T05:55:01;18.00;99.90
10468;DHT22;5281;48.878;9.394;2023-05-10T05:57:28;18.00;99.90
10468;DHT22;5281;48.878;9.394;2023-05-10T05:59:54;18.00;99.90
10468;DHT22;5281;48.878;9.394;2023-05-10T06:02:22;18.20;99.90
10468;DHT22;5281;48.878;9.394;2023-05-10T06:04:49;18.30;99.90
10468;DHT22;5281;48.878;9.394;2023-05-10T06:07:16;18.40;99.90
10468;DHT22;5281;48.878;9.394;2023-05-10T06:09:43;18.50;99.90
10468;DHT22;5281;48.878;9.394;2023-05-10T06:12:09;18.20;99.90
10468;DHT22;5281;48.878;9.394;2023-05-10T06:14:37;18.10;99.90
10468;DHT22;5281;48.878;9.394;2023-05-10T06:17:03;18.20;99.90
10468;DHT22;5281;48.878;9.394;2023-05-10T06:19:31;18.20;99.90
10468;DHT22;5281;48.878;9.394;2023-05-10T06:21:58;18.30;99.90
10468;DHT22;5281;48.878;9.394;2023-05-10T06:24:25;18.30;99.90
10468;DHT22;5281;48.878;9.394;2023-05-10T06:26:52;18.40;99.90
10468;DHT22;5281;48.878;9.394;2023-05-10T06:29:19;18.30;99.90
10468;DHT22;5281;48.878;9.394;2023-05-10T06:31:45;18.20;99.90
10468;DHT22;5281;48.878;9.394;2023-05-10T06:34:13;18.20;99.90
10468;DHT22;5281;48.878;9.394;2023-05-10T06:36:41;18.30;99.90
10468;DHT22;5281;48.878;9.394;2023-05-10T06:39:08;18.40;99.90
10468;DHT22;5281;48.878;9.394;2023-05-10T06:41:34;18.40;99.90
10468;DHT22;5281;48.878;9.394;2023-05-10T06:44:01;18.40;99.90
10468;DHT22;5281;48.878;9.394;2023-05-10T06:46:29;18.60;99.90
10468;DHT22;5281;48.878;9.394;2023-05-10T06:48:55;18.70;99.90
10468;DHT22;5281;48.878;9.394;2023-05-10T06:51:22;18.90;99.90
10468;DHT22;5281;48.878;9.394;2023-05-10T06:53:50;19.00;99.90
10468;DHT22;5281;48.878;9.394;2023-05-10T06:56:17;19.10;99.90
10468;DHT22;5281;48.878;9.394;2023-05-10T06:58:44;19.00;99.90
10468;DHT22;5281;48.878;9.394;2023-05-10T07:01:11;19.10;99.90
10468;DHT22;5281;48.878;9.394;2023-05-10T07:03:37;19.10;99.90
10468;DHT22;5281;48.878;9.394;2023-05-10T07:06:04;19.10;99.90
10468;DHT22;5281;48.878;9.394;2023-05-10T07:08:33;19.20;99.90
10468;DHT22;5281;48.878;9.394;2023-05-10T07:11:02;19.60;99.90
10468;DHT22;5281;48.878;9.394;2023-05-10T07:13:29;19.90;99.90
10468;DHT22;5281;48.878;9.394;2023-05-10T07:15:57;20.20;99.90
10468;DHT22;5281;48.878;9.394;2023-05-10T07:18:23;20.40;99.90
10468;DHT22;5281;48.878;9.394;2023-05-10T07:20:50;20.60;99.90
10468;DHT22;5281;48.878;9.394;2023-05-10T07:23:17;20.60;99.90
10468;DHT22;5281;48.878;9.394;2023-05-10T07:25:45;20.60;99.90
10468;DHT22;5281;48.878;9.394;2023-05-10T07:28:13;20.60;99.90
10468;DHT22;5281;48.878;9.394;2023-05-10T07:30:40;20.70;99.90
10468;DHT22;5281;48.878;9.394;2023-05-10T07:33:06;20.70;99.90
10468;DHT22;5281;48.878;9.394;2023-05-10T07:35:33;20.60;99.90
10468;DHT22;5281;48.878;9.394;2023-05-10T07:38:00;20.60;99.90
10468;DHT22;5281;48.878;9.394;2023-05-10T07:40:28;20.40;99.90
10468;DHT22;5281;48.878;9.394;2023-05-10T07:42:55;20.30;99.90
10468;DHT22;5281;48.878;9.394;2023-05-10T07:45:23;20.20;99.90
10468;DHT22;5281;48.878;9.394;2023-05-10T07:47:50;19.90;99.90
10468;DHT22;5281;48.878;9.394;2023-05-10T07:50:16;19.70;99.90
10468;DHT22;5281;48.878;9.394;2023-05-10T07:52:43;19.70;99.90
10468;DHT22;5281;48.878;9.394;2023-05-10T07:55:10;19.80;99.90
10468;DHT22;5281;48.878;9.394;2023-05-10T07:57:37;19.80;99.90
10468;DHT22;5281;48.878;9.394;2023-05-10T08:00:05;19.60;99.90
10468;DHT22;5281;48.878;9.394;2023-05-10T08:02:35;19.70;99.90
10468;DHT22;5281;48.878;9.394;2023-05-10T08:05:01;19.50;99.90
10468;DHT22;5281;48.878;9.394;2023-05-10T08:07:28;19.40;99.90
10468;DHT22;5281;48.878;9.394;2023-05-10T08:09:55;19.30;99.90
10468;DHT22;5281;48.878;9.394;2023-05-10T08:12:22;19.40;99.90
10468;DHT22;5281;48.878;9.394;2023-05-10T08:14:48;19.40;99.90
10468;DHT22;5281;48.878;9.394;2023-05-10T08:17:15;19.40;99.90
10468;DHT22;5281;48.878;9.394;2023-05-10T08:19:43;19.40;99.90
10468;DHT22;5281;48.878;9.394;2023-05-10T08:22:10;19.20;99.90
10468;DHT22;5281;48.878;9.394;2023-05-10T08:24:37;19.10;99.90
10468;DHT22;5281;48.878;9.394;2023-05-10T08:27:04;19.00;99.90
10468;DHT22;5281;48.878;9.394;2023-05-10T08:29:31;19.00;99.90
10468;DHT22;5281;48.878;9.394;2023-05-10T08:31:58;18.90;99.90
10468;DHT22;5281;48.878;9.394;2023-05-10T08:34:26;18.90;99.90
10468;DHT22;5281;48.878;9.394;2023-05-10T08:36:54;18.90;99.90
10468;DHT22;5281;48.878;9.394;2023-05-10T08:39:21;18.90;99.90
10468;DHT22;5281;48.878;9.394;2023-05-10T08:41:51;18.80;99.90
10468;DHT22;5281;48.878;9.394;2023-05-10T08:44:19;18.90;99.90
10468;DHT22;5281;48.878;9.394;2023-05-10T08:46:47;19.00;99.90
10468;DHT22;5281;48.878;9.394;2023-05-10T08:49:17;19.10;99.90
10468;DHT22;5281;48.878;9.394;2023-05-10T08:51:50;19.40;99.90
10468;DHT22;5281;48.878;9.394;2023-05-10T08:54:20;19.60;99.90
10468;DHT22;5281;48.878;9.394;2023-05-10T08:56:47;19.80;99.90
10468;DHT22;5281;48.878;9.394;2023-05-10T08:59:14;20.10;99.90
10468;DHT22;5281;48.878;9.394;2023-05-10T09:01:43;20.20;99.90
10468;DHT22;5281;48.878;9.394;2023-05-10T09:04:12;20.40;99.90
10468;DHT22;5281;48.878;9.394;2023-05-10T09:06:39;20.60;99.90
10468;DHT22;5281;48.878;9.394;2023-05-10T09:09:06;20.80;99.90
10468;DHT22;5281;48.878;9.394;2023-05-10T09:11:34;21.10;99.90
10468;DHT22;5281;48.878;9.394;2023-05-10T09:14:01;21.30;99.90
10468;DHT22;5281;48.878;9.394;2023-05-10T09:16:29;21.60;99.90
10468;DHT22;5281;48.878;9.394;2023-05-10T09:18:56;21.90;99.90
10468;DHT22;5281;48.878;9.394;2023-05-10T09:21:22;22.20;99.90
10468;DHT22;5281;48.878;9.394;2023-05-10T09:23:49;22.20;99.90
10468;DHT22;5281;48.878;9.394;2023-05-10T09:26:22;22.40;99.90
10468;DHT22;5281;48.878;9.394;2023-05-10T09:28:56;22.50;99.90
10468;DHT22;5281;48.878;9.394;2023-05-10T09:31:23;22.60;99.90
10468;DHT22;5281;48.878;9.394;2023-05-10T09:33:52;22.90;99.90
10468;DHT22;5281;48.878;9.394;2023-05-10T09:36:19;23.00;99.90
10468;DHT22;5281;48.878;9.394;2023-05-10T09:38:47;23.20;99.90
10468;DHT22;5281;48.878;9.394;2023-05-10T09:41:18;23.40;99.90
10468;DHT22;5281;48.878;9.394;2023-05-10T09:43:45;23.40;99.90
10468;DHT22;5281;48.878;9.394;2023-05-10T09:46:14;23.50;99.90
10468;DHT22;5281;48.878;9.394;2023-05-10T09:48:43;23.80;99.90
10468;DHT22;5281;48.878;9.394;2023-05-10T09:51:10;23.60;99.90
10468;DHT22;5281;48.878;9.394;2023-05-10T09:53:37;23.60;99.90
10468;DHT22;5281;48.878;9.394;2023-05-10T09:56:04;23.60;99.90
10468;DHT22;5281;48.878;9.394;2023-05-10T09:58:30;23.50;99.90
10468;DHT22;5281;48.878;9.394;2023-05-10T10:00:57;23.40;99.90
10468;DHT22;5281;48.878;9.394;2023-05-10T10:03:26;23.20;99.90
10468;DHT22;5281;48.878;9.394;2023-05-10T10:05:52;23.30;99.90
10468;DHT22;5281;48.878;9.394;2023-05-10T10:08:21;23.30;99.90
10468;DHT22;5281;48.878;9.394;2023-05-10T10:10:49;23.10;99.90
10468;DHT22;5281;48.878;9.394;2023-05-10T10:13:16;23.40;99.90
10468;DHT22;5281;48.878;9.394;2023-05-10T10:15:43;23.70;99.90
10468;DHT22;5281;48.878;9.394;2023-05-10T10:18:13;23.70;99.90
10468;DHT22;5281;48.878;9.394;2023-05-10T10:20:42;23.80;99.90
10468;DHT22;5281;48.878;9.394;2023-05-10T10:23:09;24.10;99.90
10468;DHT22;5281;48.878;9.394;2023-05-10T10:25:36;24.50;99.90
10468;DHT22;5281;48.878;9.394;2023-05-10T10:28:12;24.40;99.90
10468;DHT22;5281;48.878;9.394;2023-05-10T10:30:43;23.80;99.90
10468;DHT22;5281;48.878;9.394;2023-05-10T10:33:33;23.10;99.90
10468;DHT22;5281;48.878;9.394;2023-05-10T10:36:05;22.70;99.90
10468;DHT22;5281;48.878;9.394;2023-05-10T10:38:55;22.50;99.90
10468;DHT22;5281;48.878;9.394;2023-05-10T10:41:29;22.40;99.90
10468;DHT22;5281;48.878;9.394;2023-05-10T10:44:25;22.30;99.90
10468;DHT22;5281;48.878;9.394;2023-05-10T10:47:22;22.10;99.90
10468;DHT22;5281;48.878;9.394;2023-05-10T10:50:05;22.00;99.90
10468;DHT22;5281;48.878;9.394;2023-05-10T10:52:35;21.90;99.90
10468;DHT22;5281;48.878;9.394;2023-05-10T10:55:04;21.70;99.90
10468;DHT22;5281;48.878;9.394;2023-05-10T10:57:33;21.60;99.90
10468;DHT22;5281;48.878;9.394;2023-05-10T11:00:26;21.50;99.90
10468;DHT22;5281;48.878;9.394;2023-05-10T11:02:56;21.60;99.90
10468;DHT22;5281;48.878;9.394;2023-05-10T11:05:41;21.70;99.90
10468;DHT22;5281;48.878;9.394;2023-05-10T11:08:17;21.70;99.90
10468;DHT22;5281;48.878;9.394;2023-05-10T11:10:52;21.90;99.90
10468;DHT22;5281;48.878;9.394;2023-05-10T11:13:30;22.10;99.90
10468;DHT22;5281;48.878;9.394;2023-05-10T11:15:58;22.30;99.90
10468;DHT22;5281;48.878;9.394;2023-05-10T11:18:26;22.60;99.90
10468;DHT22;5281;48.878;9.394;2023-05-10T11:20:56;22.90;99.90
10468;DHT22;5281;48.878;9.394;2023-05-10T11:23:29;23.10;99.90
10468;DHT22;5281;48.878;9.394;2023-05-10T11:25:56;23.40;99.90
10468;DHT22;5281;48.878;9.394;2023-05-10T11:28:24;23.60;99.90
10468;DHT22;5281;48.878;9.394;2023-05-10T11:30:52;23.80;99.90
10468;DHT22;5281;48.878;9.394;2023-05-10T11:33:19;23.70;99.90
10468;DHT22;5281;48.878;9.394;2023-05-10T11:35:46;23.60;99.90
10468;DHT22;5281;48.878;9.394;2023-05-10T11:38:13;23.50;99.90
10468;DHT22;5281;48.878;9.394;2023-05-10T11:40:41;23.50;99.90
10468;DHT22;5281;48.878;9.394;2023-05-10T11:43:09;23.50;99.90
10468;DHT22;5281;48.878;9.394;2023-05-10T11:45:36;23.60;99.90
10468;DHT22;5281;48.878;9.394;2023-05-10T11:48:03;23.80;99.90
10468;DHT22;5281;48.878;9.394;2023-05-10T11:50:30;23.80;99.90
10468;DHT22;5281;48.878;9.394;2023-05-10T11:52:57;23.60;99.90
10468;DHT22;5281;48.878;9.394;2023-05-10T11:55:24;23.60;99.90
10468;DHT22;5281;48.878;9.394;2023-05-10T11:58:00;23.60;99.70
10468;DHT22;5281;48.878;9.394;2023-05-10T12:00:28;23.50;99.90
10468;DHT22;5281;48.878;9.394;2023-05-10T12:02:55;23.60;99.70
10468;DHT22;5281;48.878;9.394;2023-05-10T12:05:22;23.50;99.90
10468;DHT22;5281;48.878;9.394;2023-05-10T12:07:48;23.50;99.90
10468;DHT22;5281;48.878;9.394;2023-05-10T12:10:15;23.30;99.90
10468;DHT22;5281;48.878;9.394;2023-05-10T12:12:45;23.20;99.90
10468;DHT22;5281;48.878;9.394;2023-05-10T12:15:18;22.90;99.90
10468;DHT22;5281;48.878;9.394;2023-05-10T12:17:45;23.00;99.90
10468;DHT22;5281;48.878;9.394;2023-05-10T12:20:16;23.00;99.90
10468;DHT22;5281;48.878;9.394;2023-05-10T12:22:48;22.90;99.90
10468;DHT22;5281;48.878;9.394;2023-05-10T12:25:16;22.80;99.90
10468;DHT22;5281;48.878;9.394;2023-05-10T12:27:48;22.90;99.90
10468;DHT22;5281;48.878;9.394;2023-05-10T12:30:21;23.10;99.90
10468;DHT22;5281;48.878;9.394;2023-05-10T12:32:47;23.30;99.60
10468;DHT22;5281;48.878;9.394;2023-05-10T12:35:14;23.30;98.80
10468;DHT22;5281;48.878;9.394;2023-05-10T12:37:42;23.40;99.20
10468;DHT22;5281;48.878;9.394;2023-05-10T12:40:10;23.40;98.10
10468;DHT22;5281;48.878;9.394;2023-05-10T12:42:38;23.40;97.10
10468;DHT22;5281;48.878;9.394;2023-05-10T12:45:06;23.40;97.50
10468;DHT22;5281;48.878;9.394;2023-05-10T12:47:35;23.30;97.40
10468;DHT22;5281;48.878;9.394;2023-05-10T12:50:03;23.20;96.70
10468;DHT22;5281;48.878;9.394;2023-05-10T12:52:31;23.10;97.30
10468;DHT22;5281;48.878;9.394;2023-05-10T12:54:58;23.00;97.20
10468;DHT22;5281;48.878;9.394;2023-05-10T12:57:25;22.90;96.80
10468;DHT22;5281;48.878;9.394;2023-05-10T12:59:52;22.70;97.30
10468;DHT22;5281;48.878;9.394;2023-05-10T13:02:19;22.60;97.80
10468;DHT22;5281;48.878;9.394;2023-05-10T13:04:48;22.50;96.80
10468;DHT22;5281;48.878;9.394;2023-05-10T13:07:15;22.50;96.80
10468;DHT22;5281;48.878;9.394;2023-05-10T13:09:41;22.40;97.70
10468;DHT22;5281;48.878;9.394;2023-05-10T13:12:08;22.40;97.50
10468;DHT22;5281;48.878;9.394;2023-05-10T13:14:35;22.20;97.30
10468;DHT22;5281;48.878;9.394;2023-05-10T13:17:02;22.10;97.40
10468;DHT22;5281;48.878;9.394;2023-05-10T13:19:29;21.90;97.70
10468;DHT22;5281;48.878;9.394;2023-05-10T13:21:57;21.90;97.50
10468;DHT22;5281;48.878;9.394;2023-05-10T13:24:24;21.80;97.90
10468;DHT22;5281;48.878;9.394;2023-05-10T13:26:51;22.00;97.80
10468;DHT22;5281;48.878;9.394;2023-05-10T13:29:17;22.20;97.70
10468;DHT22;5281;48.878;9.394;2023-05-10T13:31:44;22.30;97.00
10468;DHT22;5281;48.878;9.394;2023-05-10T13:34:11;22.40;97.90
10468;DHT22;5281;48.878;9.394;2023-05-10T13:36:38;22.70;97.60
10468;DHT22;5281;48.878;9.394;2023-05-10T13:39:06;22.80;96.90
10468;DHT22;5281;48.878;9.394;2023-05-10T13:41:32;22.60;97.10
10468;DHT22;5281;48.878;9.394;2023-05-10T13:43:59;22.50;97.40
10468;DHT22;5281;48.878;9.394;2023-05-10T13:46:26;22.30;97.70
10468;DHT22;5281;48.878;9.394;2023-05-10T13:48:53;22.20;97.90
10468;DHT22;5281;48.878;9.394;2023-05-10T13:51:19;22.10;98.10
10468;DHT22;5281;48.878;9.394;2023-05-10T13:53:46;22.00;98.40
10468;DHT22;5281;48.878;9.394;2023-05-10T13:56:15;22.00;98.30
10468;DHT22;5281;48.878;9.394;2023-05-10T13:58:41;22.00;98.40
10468;DHT22;5281;48.878;9.394;2023-05-10T14:01:08;21.90;98.90
10468;DHT22;5281;48.878;9.394;2023-05-10T14:03:35;21.70;98.60
10468;DHT22;5281;48.878;9.394;2023-05-10T14:06:02;21.70;98.80
10468;DHT22;5281;48.878;9.394;2023-05-10T14:08:29;21.60;99.50
10468;DHT22;5281;48.878;9.394;2023-05-10T14:10:56;21.60;99.20
10468;DHT22;5281;48.878;9.394;2023-05-10T14:13:24;21.50;99.30
10468;DHT22;5281;48.878;9.394;2023-05-10T14:15:53;21.60;99.40
10468;DHT22;5281;48.878;9.394;2023-05-10T14:18:20;21.70;99.30
10468;DHT22;5281;48.878;9.394;2023-05-10T14:20:47;21.80;98.60
10468;DHT22;5281;48.878;9.394;2023-05-10T14:23:14;21.70;98.80
10468;DHT22;5281;48.878;9.394;2023-05-10T14:25:40;21.90;98.90
10468;DHT22;5281;48.878;9.394;2023-05-10T14:28:07;22.20;98.60
10468;DHT22;5281;48.878;9.394;2023-05-10T14:30:35;22.30;97.50
10468;DHT22;5281;48.878;9.394;2023-05-10T14:33:02;22.30;97.50
10468;DHT22;5281;48.878;9.394;2023-05-10T14:35:29;22.20;98.00
10468;DHT22;5281;48.878;9.394;2023-05-10T14:37:57;21.80;97.80
10468;DHT22;5281;48.878;9.394;2023-05-10T14:40:24;21.70;98.70
10468;DHT22;5281;48.878;9.394;2023-05-10T14:42:51;21.70;98.70
10468;DHT22;5281;48.878;9.394;2023-05-10T14:45:18;21.60;99.20
10468;DHT22;5281;48.878;9.394;2023-05-10T14:47:46;21.40;99.40
10468;DHT22;5281;48.878;9.394;2023-05-10T14:50:13;21.20;99.60
10468;DHT22;5281;48.878;9.394;2023-05-10T14:52:40;21.10;99.60
10468;DHT22;5281;48.878;9.394;2023-05-10T14:55:08;21.10;99.90
10468;DHT22;5281;48.878;9.394;2023-05-10T14:57:35;21.30;99.90
10468;DHT22;5281;48.878;9.394;2023-05-10T15:00:02;21.50;99.70
10468;DHT22;5281;48.878;9.394;2023-05-10T15:02:29;21.60;99.80
10468;DHT22;5281;48.878;9.394;2023-05-10T15:04:57;21.60;99.90
10468;DHT22;5281;48.878;9.394;2023-05-10T15:07:23;21.80;99.30
10468;DHT22;5281;48.878;9.394;2023-05-10T15:09:50;21.90;98.40
10468;DHT22;5281;48.878;9.394;2023-05-10T15:12:17;22.00;98.30
10468;DHT22;5281;48.878;9.394;2023-05-10T15:14:44;22.00;97.90
10468;DHT22;5281;48.878;9.394;2023-05-10T15:17:11;22.10;98.50
10468;DHT22;5281;48.878;9.394;2023-05-10T15:19:38;22.00;98.50
10468;DHT22;5281;48.878;9.394;2023-05-10T15:22:06;21.90;98.60
10468;DHT22;5281;48.878;9.394;2023-05-10T15:24:32;21.90;98.70
10468;DHT22;5281;48.878;9.394;2023-05-10T15:26:59;21.80;98.30
10468;DHT22;5281;48.878;9.394;2023-05-10T15:29:26;21.70;97.80
10468;DHT22;5281;48.878;9.394;2023-05-10T15:31:53;21.50;98.70
10468;DHT22;5281;48.878;9.394;2023-05-10T15:34:20;21.40;98.70
10468;DHT22;5281;48.878;9.394;2023-05-10T15:36:46;21.40;98.70
10468;DHT22;5281;48.878;9.394;2023-05-10T15:39:14;21.40;98.30
10468;DHT22;5281;48.878;9.394;2023-05-10T15:41:41;21.40;97.80
10468;DHT22;5281;48.878;9.394;2023-05-10T15:44:08;21.40;97.20
10468;DHT22;5281;48.878;9.394;2023-05-10T15:46:34;21.20;97.00
10468;DHT22;5281;48.878;9.394;2023-05-10T15:49:03;21.20;97.70
10468;DHT22;5281;48.878;9.394;2023-05-10T15:51:31;21.00;98.50